createdAt,value
2023-04-17T00:00:39.832Z,34.18
2023-04-17T00:01:39.833Z,34.19
2023-04-17T00:02:40.314Z,34.15
2023-04-17T00:03:40.091Z,34.18
2023-04-17T00:04:40.215Z,34.18
2023-04-17T00:05:40.060Z,34.18
2023-04-17T00:06:40.163Z,34.17
2023-04-17T00:07:40.207Z,34.19
2023-04-17T00:08:40.238Z,34.20
2023-04-17T00:09:40.310Z,34.20
2023-04-17T00:10:40.342Z,34.18
2023-04-17T00:11:40.441Z,34.18
2023-04-17T00:12:40.481Z,34.18
2023-04-17T00:13:40.513Z,34.17
2023-04-17T00:14:40.596Z,34.17
2023-04-17T00:15:40.627Z,34.17
2023-04-17T00:16:40.809Z,34.19
2023-04-17T00:17:40.755Z,34.18
2023-04-17T00:18:40.810Z,34.19
2023-04-17T00:19:40.854Z,34.19
2023-04-17T00:20:40.933Z,34.17
2023-04-17T00:21:40.930Z,34.19
2023-04-17T00:22:40.991Z,34.20
2023-04-17T00:23:41.039Z,34.18
2023-04-17T00:24:41.092Z,34.20
2023-04-17T00:25:41.118Z,34.20
2023-04-17T00:26:41.167Z,34.18
2023-04-17T00:27:41.228Z,34.19
2023-04-17T00:28:41.304Z,34.17
2023-04-17T00:29:41.329Z,34.17
2023-04-17T00:30:41.373Z,34.18
2023-04-17T00:31:41.477Z,34.19
2023-04-17T00:32:41.518Z,34.18
2023-04-17T00:33:41.507Z,34.18
2023-04-17T00:34:41.538Z,34.21
2023-04-17T00:35:41.614Z,34.18
2023-04-17T00:36:41.644Z,34.20
2023-04-17T00:37:41.721Z,34.21
2023-04-17T00:38:41.784Z,34.21
2023-04-17T00:39:41.819Z,34.22
2023-04-17T00:40:41.915Z,34.21
2023-04-17T00:41:41.993Z,34.21
2023-04-17T00:42:42.010Z,34.21
2023-04-17T00:43:42.037Z,34.21
2023-04-17T00:44:42.077Z,34.20
2023-04-17T00:45:42.129Z,34.22
2023-04-17T00:46:42.129Z,34.22
2023-04-17T00:47:42.216Z,34.22
2023-04-17T00:48:42.201Z,34.23
2023-04-17T00:49:42.215Z,34.22
2023-04-17T00:50:42.257Z,34.21
2023-04-17T00:51:42.285Z,34.23
2023-04-17T00:52:42.344Z,34.20
2023-04-17T00:53:42.387Z,34.21
2023-04-17T00:54:42.431Z,34.22
2023-04-17T00:55:42.469Z,34.22
2023-04-17T00:56:42.505Z,34.22
2023-04-17T00:57:42.573Z,34.21
2023-04-17T00:58:42.618Z,34.23
2023-04-17T00:59:42.628Z,34.21
2023-04-17T01:00:42.669Z,34.20
2023-04-17T01:01:42.800Z,34.20
2023-04-17T01:02:42.871Z,34.20
2023-04-17T01:03:43.024Z,34.21
2023-04-17T01:04:42.809Z,34.21
2023-04-17T01:05:42.895Z,34.23
2023-04-17T01:06:42.898Z,34.23
2023-04-17T01:07:42.926Z,34.23
2023-04-17T01:08:42.956Z,34.22
2023-04-17T01:09:43.029Z,34.21
2023-04-17T01:10:43.093Z,34.23
2023-04-17T01:11:43.157Z,34.21
2023-04-17T01:12:43.166Z,34.24
2023-04-17T01:13:43.219Z,34.22
2023-04-17T01:14:43.274Z,34.23
2023-04-17T01:15:43.697Z,34.22
2023-04-17T01:16:43.377Z,34.23
2023-04-17T01:17:43.443Z,34.21
2023-04-17T01:18:43.444Z,34.23
2023-04-17T01:19:43.466Z,34.24
2023-04-17T01:20:43.514Z,34.25
2023-04-17T01:21:43.533Z,34.21
2023-04-17T01:22:43.574Z,34.22
2023-04-17T01:23:43.597Z,34.22
2023-04-17T01:24:43.606Z,34.24
2023-04-17T01:25:43.668Z,34.22
2023-04-17T01:26:43.697Z,34.23
2023-04-17T01:27:43.702Z,34.24
2023-04-17T01:28:43.754Z,34.21
2023-04-17T01:29:43.816Z,34.22
2023-04-17T01:30:43.942Z,34.21
2023-04-17T01:31:43.866Z,34.23
2023-04-17T01:32:43.917Z,34.23
2023-04-17T01:33:43.962Z,34.24
2023-04-17T01:34:43.992Z,34.21
2023-04-17T01:35:44.061Z,34.23
2023-04-17T01:36:44.088Z,34.24
2023-04-17T01:37:44.165Z,34.24
2023-04-17T01:38:44.156Z,34.22
2023-04-17T01:39:44.188Z,34.24
2023-04-17T01:40:44.259Z,34.25
2023-04-17T01:41:44.263Z,34.23
2023-04-17T01:42:44.336Z,34.24
2023-04-17T01:43:44.363Z,34.22
2023-04-17T01:44:44.389Z,34.23
2023-04-17T01:45:44.486Z,34.22
2023-04-17T01:46:44.517Z,34.23
2023-04-17T01:47:44.559Z,34.22
2023-04-17T01:48:44.628Z,34.23
2023-04-17T01:49:44.616Z,34.23
2023-04-17T01:50:44.733Z,34.24
2023-04-17T01:51:44.722Z,34.25
2023-04-17T01:52:44.787Z,34.23
2023-04-17T01:53:44.798Z,34.24
2023-04-17T01:54:44.875Z,34.24
2023-04-17T01:55:44.931Z,34.25
2023-04-17T01:56:44.917Z,34.23
2023-04-17T01:57:44.993Z,34.24
2023-04-17T01:58:45.056Z,34.24
2023-04-17T01:59:45.074Z,34.23
2023-04-17T02:00:45.142Z,34.23
2023-04-17T02:01:45.186Z,34.25
2023-04-17T02:02:45.355Z,34.23
2023-04-17T02:03:45.354Z,34.23
2023-04-17T02:04:45.294Z,34.26
2023-04-17T02:05:45.283Z,34.22
2023-04-17T02:06:45.348Z,34.22
2023-04-17T02:07:45.372Z,34.22
2023-04-17T02:08:45.402Z,34.24
2023-04-17T02:09:45.469Z,34.22
2023-04-17T02:10:45.464Z,34.23
2023-04-17T02:11:45.538Z,34.22
2023-04-17T02:12:45.527Z,34.24
2023-04-17T02:13:45.574Z,34.23
2023-04-17T02:14:45.598Z,34.25
2023-04-17T02:15:45.659Z,34.22
2023-04-17T02:16:45.703Z,34.22
2023-04-17T02:17:45.821Z,34.22
2023-04-17T02:18:45.782Z,34.22
2023-04-17T02:19:45.848Z,34.23
2023-04-17T02:20:45.873Z,34.23
2023-04-17T02:21:45.934Z,34.25
2023-04-17T02:22:45.961Z,34.23
2023-04-17T02:23:46.025Z,34.23
2023-04-17T02:24:46.043Z,34.24
2023-04-17T02:25:46.066Z,34.23
2023-04-17T02:26:46.107Z,34.22
2023-04-17T02:27:46.145Z,34.22
2023-04-17T02:28:46.156Z,34.23
2023-04-17T02:29:46.150Z,34.24
2023-04-17T02:30:46.185Z,34.21
2023-04-17T02:31:46.314Z,34.22
2023-04-17T02:32:46.292Z,34.24
2023-04-17T02:33:46.270Z,34.23
2023-04-17T02:34:46.297Z,34.24
2023-04-17T02:35:46.343Z,34.24
2023-04-17T02:36:46.381Z,34.24
2023-04-17T02:37:46.402Z,34.23
2023-04-17T02:38:46.434Z,34.22
2023-04-17T02:39:46.470Z,34.24
2023-04-17T02:40:46.514Z,34.23
2023-04-17T02:41:46.545Z,34.24
2023-04-17T02:42:46.588Z,34.24
2023-04-17T02:43:46.650Z,34.25
2023-04-17T02:44:46.669Z,34.25
2023-04-17T02:45:46.726Z,34.23
2023-04-17T02:46:46.792Z,34.23
2023-04-17T02:47:46.864Z,34.23
2023-04-17T02:48:46.846Z,34.24
2023-04-17T02:49:46.917Z,34.27
2023-04-17T02:50:46.934Z,34.23
2023-04-17T02:51:46.965Z,34.23
2023-04-17T02:52:47.010Z,34.24
2023-04-17T02:53:47.038Z,34.26
2023-04-17T02:54:47.077Z,34.23
2023-04-17T02:55:47.135Z,34.27
2023-04-17T02:56:47.140Z,34.24
2023-04-17T02:57:47.170Z,34.25
2023-04-17T02:58:47.213Z,34.27
2023-04-17T02:59:47.255Z,34.25
2023-04-17T03:00:47.298Z,34.25
2023-04-17T03:01:47.334Z,34.26
2023-04-17T03:02:47.457Z,34.26
2023-04-17T03:03:47.519Z,34.25
2023-04-17T03:04:47.455Z,34.26
2023-04-17T03:05:47.496Z,34.26
2023-04-17T03:06:47.544Z,34.24
2023-04-17T03:07:47.603Z,34.25
2023-04-17T03:08:47.633Z,34.23
2023-04-17T03:09:47.706Z,34.25
2023-04-17T03:10:47.744Z,34.25
2023-04-17T03:11:47.780Z,34.25
2023-04-17T03:12:47.830Z,34.27
2023-04-17T03:13:47.876Z,34.26
2023-04-17T03:14:47.962Z,34.25
2023-04-17T03:15:47.994Z,34.25
2023-04-17T03:16:48.067Z,34.22
2023-04-17T03:17:48.088Z,34.25
2023-04-17T03:18:48.079Z,34.25
2023-04-17T03:19:48.101Z,34.25
2023-04-17T03:20:48.207Z,34.25
2023-04-17T03:21:48.184Z,34.23
2023-04-17T03:22:48.201Z,34.24
2023-04-17T03:23:48.257Z,34.25
2023-04-17T03:24:48.276Z,34.26
2023-04-17T03:25:48.346Z,34.27
2023-04-17T03:26:48.349Z,34.25
2023-04-17T03:27:48.380Z,34.25
2023-04-17T03:28:48.416Z,34.24
2023-04-17T03:29:48.424Z,34.26
2023-04-17T03:30:48.504Z,34.26
2023-04-17T03:31:48.587Z,34.25
2023-04-17T03:32:48.564Z,34.25
2023-04-17T03:33:48.583Z,34.24
2023-04-17T03:34:48.630Z,34.26
2023-04-17T03:35:48.639Z,34.25
2023-04-17T03:36:48.749Z,34.25
2023-04-17T03:37:48.740Z,34.25
2023-04-17T03:38:48.782Z,34.26
2023-04-17T03:39:48.842Z,34.29
2023-04-17T03:40:48.902Z,34.25
2023-04-17T03:41:48.932Z,34.26
2023-04-17T03:42:48.939Z,34.25
2023-04-17T03:43:48.985Z,34.26
2023-04-17T03:44:48.981Z,34.25
2023-04-17T03:45:49.044Z,34.26
2023-04-17T03:46:49.053Z,34.25
2023-04-17T03:47:49.194Z,34.25
2023-04-17T03:48:49.162Z,34.26
2023-04-17T03:49:49.233Z,34.25
2023-04-17T03:50:49.280Z,34.25
2023-04-17T03:51:49.300Z,34.26
2023-04-17T03:52:49.320Z,34.27
2023-04-17T03:53:49.451Z,34.26
2023-04-17T03:54:49.382Z,34.26
2023-04-17T03:55:49.433Z,34.27
2023-04-17T03:56:49.441Z,34.26
2023-04-17T03:57:49.510Z,34.27
2023-04-17T03:58:49.530Z,34.27
2023-04-17T03:59:49.549Z,34.26
2023-04-17T04:00:49.565Z,34.25
2023-04-17T04:01:49.653Z,34.26
2023-04-17T04:02:49.754Z,34.26
2023-04-17T04:03:49.829Z,34.25
2023-04-17T04:04:49.797Z,34.26
2023-04-17T04:05:49.732Z,34.27
2023-04-17T04:06:49.771Z,34.26
2023-04-17T04:07:49.796Z,34.25
2023-04-17T04:08:49.811Z,34.25
2023-04-17T04:09:49.810Z,34.26
2023-04-17T04:10:49.861Z,34.25
2023-04-17T04:11:49.863Z,34.25
2023-04-17T04:12:49.892Z,34.27
2023-04-17T04:13:49.918Z,34.27
2023-04-17T04:14:49.933Z,34.25
2023-04-17T04:15:49.963Z,34.28
2023-04-17T04:16:49.971Z,34.27
2023-04-17T04:17:50.136Z,34.26
2023-04-17T04:18:50.012Z,34.27
2023-04-17T04:19:50.020Z,34.27
2023-04-17T04:20:50.051Z,34.25
2023-04-17T04:21:50.053Z,34.27
2023-04-17T04:22:50.097Z,34.24
2023-04-17T04:23:50.101Z,34.27
2023-04-17T04:24:50.172Z,34.25
2023-04-17T04:25:50.179Z,34.28
2023-04-17T04:26:50.205Z,34.29
2023-04-17T04:27:50.252Z,34.27
2023-04-17T04:28:50.222Z,34.28
2023-04-17T04:29:50.278Z,34.28
2023-04-17T04:30:50.340Z,34.27
2023-04-17T04:31:50.363Z,34.28
2023-04-17T04:32:50.393Z,34.26
2023-04-17T04:33:50.328Z,34.30
2023-04-17T04:34:50.348Z,34.28
2023-04-17T04:35:50.375Z,34.29
2023-04-17T04:36:50.446Z,34.28
2023-04-17T04:37:50.458Z,34.27
2023-04-17T04:38:50.611Z,34.27
2023-04-17T04:39:50.530Z,34.27
2023-04-17T04:40:50.565Z,34.27
2023-04-17T04:41:50.786Z,34.29
2023-04-17T04:42:50.601Z,34.27
2023-04-17T04:43:50.672Z,34.27
2023-04-17T04:44:50.680Z,34.27
2023-04-17T04:45:50.704Z,34.28
2023-04-17T04:46:50.763Z,34.28
2023-04-17T04:47:50.830Z,34.28
2023-04-17T04:48:50.815Z,34.28
2023-04-17T04:49:50.826Z,34.26
2023-04-17T04:50:50.889Z,34.28
2023-04-17T04:51:50.906Z,34.28
2023-04-17T04:52:50.995Z,34.27
2023-04-17T04:53:51.012Z,34.28
2023-04-17T04:54:51.030Z,34.27
2023-04-17T04:55:51.133Z,34.29
2023-04-17T04:56:51.125Z,34.26
2023-04-17T04:57:51.138Z,34.29
2023-04-17T04:58:51.208Z,34.26
2023-04-17T04:59:51.221Z,34.28
2023-04-17T05:00:51.319Z,34.30
2023-04-17T05:01:51.311Z,34.30
2023-04-17T05:02:51.439Z,34.29
2023-04-17T05:03:51.520Z,34.30
2023-04-17T05:04:51.416Z,34.29
2023-04-17T05:05:51.439Z,34.28
2023-04-17T05:06:51.419Z,34.27
2023-04-17T05:07:51.773Z,34.30
2023-04-17T05:08:51.503Z,34.31
2023-04-17T05:09:51.569Z,34.29
2023-04-17T05:10:51.570Z,34.29
2023-04-17T05:11:51.611Z,34.29
2023-04-17T05:12:51.676Z,34.30
2023-04-17T05:13:51.734Z,34.29
2023-04-17T05:14:51.771Z,34.30
2023-04-17T05:15:51.793Z,34.30
2023-04-17T05:16:51.937Z,34.30
2023-04-17T05:17:52.328Z,34.30
2023-04-17T05:18:51.890Z,34.30
2023-04-17T05:19:51.915Z,34.31
2023-04-17T05:20:51.988Z,34.29
2023-04-17T05:21:52.000Z,34.31
2023-04-17T05:22:52.064Z,34.35
2023-04-17T05:23:52.039Z,34.36
2023-04-17T05:24:52.060Z,34.39
2023-04-17T05:25:52.118Z,34.40
2023-04-17T05:26:52.142Z,34.37
2023-04-17T05:27:52.151Z,34.34
2023-04-17T05:28:52.180Z,34.36
2023-04-17T05:29:52.256Z,34.32
2023-04-17T05:30:52.314Z,34.27
2023-04-17T05:31:52.377Z,34.27
2023-04-17T05:32:52.539Z,34.23
2023-04-17T05:33:53.246Z,34.18
2023-04-17T05:34:52.610Z,34.06
2023-04-17T05:35:55.435Z,34.19
2023-04-17T05:36:52.639Z,34.55
2023-04-17T05:37:52.820Z,34.80
2023-04-17T05:38:52.643Z,34.62
2023-04-17T05:39:52.573Z,34.54
2023-04-17T05:40:52.617Z,34.62
2023-04-17T05:41:52.581Z,35.45
2023-04-17T05:42:52.870Z,35.57
2023-04-17T05:43:52.550Z,35.80
2023-04-17T05:44:53.255Z,36.04
2023-04-17T05:45:52.583Z,36.56
2023-04-17T05:46:52.819Z,36.27
2023-04-17T05:47:52.778Z,36.83
2023-04-17T05:48:52.491Z,36.74
2023-04-17T05:49:52.509Z,37.61
2023-04-17T05:50:52.466Z,37.50
2023-04-17T05:51:52.465Z,37.31
2023-04-17T05:52:52.496Z,37.23
2023-04-17T05:53:52.461Z,37.25
2023-04-17T05:54:52.467Z,37.41
2023-04-17T05:55:52.439Z,37.62
2023-04-17T05:56:52.447Z,37.69
2023-04-17T05:57:52.501Z,37.86
2023-04-17T05:58:52.437Z,38.44
2023-04-17T05:59:52.411Z,38.29
2023-04-17T06:00:52.489Z,38.88
2023-04-17T06:01:52.607Z,39.55
2023-04-17T06:02:52.512Z,39.33
2023-04-17T06:03:52.501Z,39.23
2023-04-17T06:04:52.785Z,39.11
2023-04-17T06:05:52.518Z,39.27
2023-04-17T06:06:52.375Z,39.38
2023-04-17T06:07:52.391Z,39.96
2023-04-17T06:08:52.350Z,39.50
2023-04-17T06:09:52.353Z,39.65
2023-04-17T06:10:52.369Z,39.74
2023-04-17T06:11:52.330Z,39.94
2023-04-17T06:12:52.333Z,40.00
2023-04-17T06:13:52.454Z,40.00
2023-04-17T06:14:52.343Z,40.13
2023-04-17T06:15:52.299Z,40.42
2023-04-17T06:16:52.390Z,40.35
2023-04-17T06:17:52.438Z,40.32
2023-04-17T06:18:52.278Z,40.35
2023-04-17T06:19:52.297Z,40.38
2023-04-17T06:20:52.273Z,40.48
2023-04-17T06:21:52.316Z,40.51
2023-04-17T06:22:52.306Z,40.72
2023-04-17T06:23:52.781Z,40.94
2023-04-17T06:24:52.348Z,40.80
2023-04-17T06:25:52.384Z,40.82
2023-04-17T06:26:52.445Z,40.88
2023-04-17T06:27:52.418Z,41.53
2023-04-17T06:28:52.454Z,41.04
2023-04-17T06:29:52.503Z,41.09
2023-04-17T06:30:52.519Z,41.17
2023-04-17T06:31:52.532Z,41.16
2023-04-17T06:32:52.515Z,41.51
2023-04-17T06:33:52.528Z,41.33
2023-04-17T06:34:59.571Z,41.21
2023-04-17T06:35:53.631Z,40.48
2023-04-17T06:36:52.619Z,38.91
2023-04-17T06:37:52.588Z,38.55
2023-04-17T06:38:52.519Z,37.99
2023-04-17T06:39:52.539Z,38.47
2023-04-17T06:40:52.818Z,38.32
2023-04-17T06:41:52.776Z,37.98
2023-04-17T06:42:52.545Z,38.02
2023-04-17T06:43:52.497Z,37.63
2023-04-17T06:44:52.508Z,37.26
2023-04-17T06:45:52.586Z,37.41
2023-04-17T06:46:52.910Z,37.49
2023-04-17T06:47:52.492Z,37.18
2023-04-17T06:48:52.482Z,37.22
2023-04-17T06:49:52.565Z,37.01
2023-04-17T06:50:52.477Z,36.89
2023-04-17T06:51:52.810Z,36.71
2023-04-17T06:52:52.466Z,36.66
2023-04-17T06:53:52.803Z,36.95
2023-04-17T06:54:52.495Z,37.20
2023-04-17T06:55:53.288Z,37.17
2023-04-17T06:56:52.595Z,37.08
2023-04-17T06:57:52.684Z,37.10
2023-04-17T06:58:52.719Z,36.99
2023-04-17T06:59:52.781Z,36.95
2023-04-17T07:00:52.843Z,36.99
2023-04-17T07:01:52.974Z,37.24
2023-04-17T07:02:53.089Z,37.30
2023-04-17T07:03:53.082Z,37.28
2023-04-17T07:04:53.225Z,37.29
2023-04-17T07:05:53.102Z,37.17
2023-04-17T07:06:53.122Z,37.10
2023-04-17T07:07:53.232Z,37.02
2023-04-17T07:08:55.527Z,36.87
2023-04-17T07:09:53.227Z,36.96
2023-04-17T07:10:53.250Z,37.05
2023-04-17T07:11:53.270Z,37.09
2023-04-17T07:12:53.280Z,37.12
2023-04-17T07:13:53.373Z,37.12
2023-04-17T07:14:53.374Z,37.28
2023-04-17T07:15:53.498Z,37.68
2023-04-17T07:16:53.570Z,37.74
2023-04-17T07:17:53.707Z,37.56
2023-04-17T07:18:53.600Z,37.48
2023-04-17T07:19:53.656Z,37.52
2023-04-17T07:20:53.713Z,37.44
2023-04-17T07:21:53.754Z,37.45
2023-04-17T07:22:53.781Z,37.41
2023-04-17T07:23:53.844Z,37.41
2023-04-17T07:24:53.857Z,37.36
2023-04-17T07:25:53.867Z,37.60
2023-04-17T07:26:53.931Z,37.76
2023-04-17T07:27:53.900Z,37.66
2023-04-17T07:28:54.327Z,37.76
2023-04-17T07:29:54.020Z,37.87
2023-04-17T07:30:53.974Z,37.89
2023-04-17T07:31:54.217Z,37.94
2023-04-17T07:32:54.185Z,37.96
2023-04-17T07:33:54.053Z,38.08
2023-04-17T07:34:54.045Z,38.22
2023-04-17T07:35:54.152Z,38.51
2023-04-17T07:36:54.068Z,38.55
2023-04-17T07:37:54.102Z,38.53
2023-04-17T07:38:54.116Z,38.64
2023-04-17T07:39:54.123Z,38.63
2023-04-17T07:40:54.123Z,38.88
2023-04-17T07:41:54.126Z,38.75
2023-04-17T07:42:54.129Z,38.98
2023-04-17T07:43:54.342Z,38.88
2023-04-17T07:44:54.178Z,38.95
2023-04-17T07:45:54.173Z,38.88
2023-04-17T07:46:54.339Z,38.93
2023-04-17T07:47:54.232Z,38.91
2023-04-17T07:48:54.161Z,39.07
2023-04-17T07:49:54.134Z,39.03
2023-04-17T07:50:54.136Z,38.91
2023-04-17T07:51:54.178Z,38.93
2023-04-17T07:52:54.216Z,39.05
2023-04-17T07:53:54.329Z,39.02
2023-04-17T07:54:54.328Z,38.90
2023-04-17T07:55:54.412Z,38.82
2023-04-17T07:56:54.454Z,38.88
2023-04-17T07:57:54.512Z,39.03
2023-04-17T07:58:54.816Z,39.03
2023-04-17T07:59:54.640Z,38.74
2023-04-17T08:00:54.704Z,38.75
2023-04-17T08:01:54.884Z,39.28
2023-04-17T08:02:55.464Z,38.91
2023-04-17T08:03:55.252Z,39.16
2023-04-17T08:04:55.061Z,39.10
2023-04-17T08:05:55.080Z,38.67
2023-04-17T08:06:55.053Z,39.01
2023-04-17T08:07:55.324Z,38.99
2023-04-17T08:08:55.174Z,39.08
2023-04-17T08:09:55.220Z,39.39
2023-04-17T08:10:55.815Z,39.37
2023-04-17T08:11:57.976Z,39.17
2023-04-17T08:12:55.353Z,39.25
2023-04-17T08:13:55.309Z,39.86
2023-04-17T08:14:55.331Z,39.96
2023-04-17T08:15:55.269Z,40.86
2023-04-17T08:16:55.307Z,40.87
2023-04-17T08:17:55.854Z,40.94
2023-04-17T08:18:55.247Z,40.79
2023-04-17T08:19:55.263Z,40.96
2023-04-17T08:20:55.223Z,40.79
2023-04-17T08:21:55.324Z,40.56
2023-04-17T08:22:55.256Z,40.66
2023-04-17T08:23:55.211Z,40.34
2023-04-17T08:24:55.239Z,40.36
2023-04-17T08:25:55.194Z,40.03
2023-04-17T08:26:55.193Z,39.88
2023-04-17T08:27:55.258Z,39.79
2023-04-17T08:28:55.235Z,39.81
2023-04-17T08:29:55.196Z,39.72
2023-04-17T08:30:55.227Z,39.68
2023-04-17T08:32:06.852Z,39.63
2023-04-17T08:32:56.334Z,39.60
2023-04-17T08:34:06.248Z,39.60
2023-04-17T08:34:56.368Z,39.59
2023-04-17T08:35:55.166Z,39.52
2023-04-17T08:36:55.174Z,39.45
2023-04-17T08:37:55.360Z,39.47
2023-04-17T08:38:55.153Z,39.42
2023-04-17T08:39:55.359Z,39.39
2023-04-17T08:40:55.135Z,39.36
2023-04-17T08:41:55.127Z,39.40
2023-04-17T08:42:55.187Z,39.49
2023-04-17T08:43:55.097Z,39.49
2023-04-17T08:44:55.103Z,39.41
2023-04-17T08:45:55.300Z,39.17
2023-04-17T08:46:55.174Z,39.18
2023-04-17T08:47:55.405Z,39.07
2023-04-17T08:48:55.315Z,39.41
2023-04-17T08:49:56.312Z,39.73
2023-04-17T08:50:55.435Z,39.65
2023-04-17T08:51:55.510Z,39.47
2023-04-17T08:52:55.851Z,39.62
2023-04-17T08:53:55.599Z,39.70
2023-04-17T08:54:55.675Z,39.65
2023-04-17T08:55:55.692Z,39.60
2023-04-17T08:56:55.753Z,39.52
2023-04-17T08:57:56.389Z,39.57
2023-04-17T08:58:55.858Z,39.53
2023-04-17T08:59:55.899Z,39.76
2023-04-17T09:00:55.961Z,39.66
2023-04-17T09:01:56.082Z,39.74
2023-04-17T09:02:56.168Z,39.83
2023-04-17T09:03:56.238Z,39.80
2023-04-17T09:04:56.298Z,39.79
2023-04-17T09:05:56.195Z,39.74
2023-04-17T09:06:56.233Z,40.03
2023-04-17T09:07:56.340Z,39.23
2023-04-17T09:08:56.331Z,39.37
2023-04-17T09:09:56.346Z,39.62
2023-04-17T09:10:56.378Z,39.59
2023-04-17T09:11:56.416Z,39.57
2023-04-17T09:12:56.499Z,39.62
2023-04-17T09:13:56.552Z,39.50
2023-04-17T09:14:56.533Z,39.34
2023-04-17T09:15:56.659Z,39.54
2023-04-17T09:16:56.591Z,39.43
2023-04-17T09:17:56.754Z,39.18
2023-04-17T09:18:56.703Z,39.27
2023-04-17T09:19:56.836Z,39.01
2023-04-17T09:20:56.832Z,38.61
2023-04-17T09:21:56.833Z,38.67
2023-04-17T09:22:56.907Z,38.22
2023-04-17T09:23:56.913Z,38.04
2023-04-17T09:24:57.733Z,38.06
2023-04-17T09:25:57.033Z,38.03
2023-04-17T09:26:57.091Z,37.39
2023-04-17T09:27:57.365Z,37.38
2023-04-17T09:28:57.175Z,37.61
2023-04-17T09:29:57.251Z,37.18
2023-04-17T09:30:57.377Z,37.39
2023-04-17T09:31:57.424Z,37.16
2023-04-17T09:32:57.983Z,36.97
2023-04-17T09:33:57.491Z,36.73
2023-04-17T09:34:57.550Z,36.70
2023-04-17T09:35:57.624Z,36.71
2023-04-17T09:36:57.635Z,36.78
2023-04-17T09:37:57.701Z,36.82
2023-04-17T09:38:57.851Z,36.66
2023-04-17T09:39:57.856Z,36.43
2023-04-17T09:40:57.870Z,36.34
2023-04-17T09:41:57.938Z,36.41
2023-04-17T09:42:58.001Z,36.55
2023-04-17T09:43:58.061Z,36.32
2023-04-17T09:44:58.401Z,36.58
2023-04-17T09:45:58.182Z,36.51
2023-04-17T09:46:58.326Z,36.44
2023-04-17T09:47:58.338Z,36.40
2023-04-17T09:48:58.312Z,36.07
2023-04-17T09:49:58.390Z,36.18
2023-04-17T09:50:58.395Z,36.14
2023-04-17T09:51:58.463Z,36.10
2023-04-17T09:52:58.681Z,36.04
2023-04-17T09:53:58.550Z,35.99
2023-04-17T09:54:58.639Z,35.86
2023-04-17T09:55:58.672Z,36.18
2023-04-17T09:56:58.758Z,35.83
2023-04-17T09:57:58.820Z,35.69
2023-04-17T09:58:58.857Z,35.79
2023-04-17T09:59:59.374Z,35.65
2023-04-17T10:00:59.034Z,35.58
2023-04-17T10:01:59.120Z,35.60
2023-04-17T10:02:59.345Z,35.62
2023-04-17T10:03:59.491Z,35.58
2023-04-17T10:04:59.228Z,35.52
2023-04-17T10:05:59.369Z,35.39
2023-04-17T10:06:59.359Z,35.45
2023-04-17T10:07:59.440Z,35.58
2023-04-17T10:08:59.492Z,35.56
2023-04-17T10:09:59.502Z,35.58
2023-04-17T10:10:59.586Z,35.28
2023-04-17T10:11:59.583Z,35.58
2023-04-17T10:12:59.631Z,35.64
2023-04-17T10:13:59.715Z,35.51
2023-04-17T10:14:59.733Z,35.55
2023-04-17T10:15:59.829Z,35.48
2023-04-17T10:16:59.831Z,35.34
2023-04-17T10:17:59.961Z,35.31
2023-04-17T10:18:59.953Z,35.33
2023-04-17T10:20:00.032Z,35.16
2023-04-17T10:21:00.098Z,34.81
2023-04-17T10:22:00.158Z,34.83
2023-04-17T10:23:00.210Z,34.84
2023-04-17T10:24:00.242Z,34.74
2023-04-17T10:25:00.278Z,34.80
2023-04-17T10:26:00.351Z,34.76
2023-04-17T10:27:00.365Z,34.94
2023-04-17T10:28:01.346Z,34.92
2023-04-17T10:29:00.461Z,35.18
2023-04-17T10:30:00.466Z,35.49
2023-04-17T10:31:00.577Z,36.26
2023-04-17T10:32:00.592Z,37.01
2023-04-17T10:33:00.981Z,37.44
2023-04-17T10:34:00.543Z,37.91
2023-04-17T10:35:00.580Z,37.62
2023-04-17T10:36:00.548Z,37.88
2023-04-17T10:37:00.545Z,37.88
2023-04-17T10:38:00.588Z,37.78
2023-04-17T10:39:00.522Z,37.84
2023-04-17T10:40:00.708Z,38.06
2023-04-17T10:41:00.869Z,37.94
2023-04-17T10:42:00.545Z,37.96
2023-04-17T10:43:00.867Z,38.08
2023-04-17T10:44:00.596Z,38.00
2023-04-17T10:45:00.636Z,38.00
2023-04-17T10:46:00.941Z,37.96
2023-04-17T10:47:00.751Z,38.01
2023-04-17T10:48:01.430Z,37.96
2023-04-17T10:49:00.857Z,38.07
2023-04-17T10:50:00.932Z,38.07
2023-04-17T10:51:01.392Z,38.13
2023-04-17T10:52:01.001Z,38.06
2023-04-17T10:53:01.399Z,38.05
2023-04-17T10:54:01.089Z,38.05
2023-04-17T10:55:01.136Z,38.05
2023-04-17T10:56:01.218Z,37.92
2023-04-17T10:57:01.218Z,37.87
2023-04-17T10:58:01.354Z,37.82
2023-04-17T10:59:01.318Z,37.72
2023-04-17T11:00:01.411Z,37.74
2023-04-17T11:01:01.516Z,37.75
2023-04-17T11:02:01.749Z,37.66
2023-04-17T11:03:01.682Z,37.62
2023-04-17T11:04:01.571Z,37.52
2023-04-17T11:05:01.628Z,37.40
2023-04-17T11:06:01.564Z,37.33
2023-04-17T11:07:01.607Z,37.23
2023-04-17T11:08:01.656Z,37.18
2023-04-17T11:09:01.674Z,37.08
2023-04-17T11:10:01.714Z,37.03
2023-04-17T11:11:01.721Z,36.91
2023-04-17T11:12:02.045Z,36.89
2023-04-17T11:13:01.811Z,36.85
2023-04-17T11:14:01.800Z,36.74
2023-04-17T11:15:02.404Z,36.99
2023-04-17T11:16:01.768Z,37.04
2023-04-17T11:17:01.995Z,36.93
2023-04-17T11:18:01.891Z,36.87
2023-04-17T11:19:01.760Z,36.84
2023-04-17T11:20:01.863Z,36.81
2023-04-17T11:21:01.772Z,36.80
2023-04-17T11:22:01.787Z,36.81
2023-04-17T11:23:01.822Z,36.83
2023-04-17T11:24:01.765Z,36.80
2023-04-17T11:25:01.753Z,36.78
2023-04-17T11:26:01.928Z,36.82
2023-04-17T11:27:01.764Z,36.78
2023-04-17T11:28:01.799Z,36.79
2023-04-17T11:29:01.759Z,36.77
2023-04-17T11:30:01.766Z,36.77
2023-04-17T11:31:01.749Z,36.75
2023-04-17T11:32:01.753Z,36.77
2023-04-17T11:33:01.825Z,36.79
2023-04-17T11:34:01.804Z,36.78
2023-04-17T11:35:01.783Z,36.78
2023-04-17T11:36:01.782Z,36.75
2023-04-17T11:37:01.937Z,36.78
2023-04-17T11:38:01.770Z,36.80
2023-04-17T11:39:01.831Z,36.86
2023-04-17T11:40:01.798Z,36.82
2023-04-17T11:41:01.896Z,36.83
2023-04-17T11:42:01.795Z,36.83
2023-04-17T11:43:01.803Z,36.80
2023-04-17T11:44:01.813Z,36.83
2023-04-17T11:45:03.614Z,36.81
2023-04-17T11:46:01.856Z,36.79
2023-04-17T11:47:01.790Z,36.70
2023-04-17T11:48:01.889Z,36.68
2023-04-17T11:49:01.792Z,36.64
2023-04-17T11:50:01.797Z,36.60
2023-04-17T11:51:01.853Z,36.56
2023-04-17T11:52:01.862Z,36.54
2023-04-17T11:53:01.833Z,36.49
2023-04-17T11:54:01.907Z,36.45
2023-04-17T11:55:01.850Z,36.43
2023-04-17T11:56:01.892Z,36.40
2023-04-17T11:57:01.994Z,36.36
2023-04-17T11:58:01.934Z,36.32
2023-04-17T11:59:01.938Z,36.29
2023-04-17T12:00:02.005Z,36.28
2023-04-17T12:01:01.987Z,36.24
2023-04-17T12:02:02.334Z,36.19
2023-04-17T12:03:02.296Z,36.16
2023-04-17T12:04:02.352Z,36.14
2023-04-17T12:05:02.468Z,36.13
2023-04-17T12:06:02.296Z,36.11
2023-04-17T12:07:02.253Z,36.11
2023-04-17T12:08:02.284Z,36.10
2023-04-17T12:09:02.384Z,36.06
2023-04-17T12:10:02.420Z,36.07
2023-04-17T12:11:02.370Z,36.04
2023-04-17T12:12:02.388Z,36.03
2023-04-17T12:13:02.411Z,35.97
2023-04-17T12:14:02.446Z,36.00
2023-04-17T12:15:02.550Z,35.96
2023-04-17T12:16:02.588Z,35.92
2023-04-17T12:17:02.638Z,35.90
2023-04-17T12:18:02.701Z,35.88
2023-04-17T12:19:02.675Z,35.88
2023-04-17T12:20:02.733Z,35.84
2023-04-17T12:21:02.760Z,35.82
2023-04-17T12:22:02.829Z,35.80
2023-04-17T12:23:02.904Z,35.78
2023-04-17T12:24:02.924Z,35.75
2023-04-17T12:25:03.006Z,35.70
2023-04-17T12:26:03.024Z,35.68
2023-04-17T12:27:03.071Z,35.66
2023-04-17T12:28:03.147Z,35.62
2023-04-17T12:29:03.230Z,35.59
2023-04-17T12:30:03.245Z,35.58
2023-04-17T12:31:03.309Z,35.56
2023-04-17T12:32:03.618Z,35.54
2023-04-17T12:33:03.585Z,35.49
2023-04-17T12:34:03.505Z,35.48
2023-04-17T12:35:03.569Z,35.47
2023-04-17T12:36:03.672Z,35.46
2023-04-17T12:37:03.737Z,35.43
2023-04-17T12:38:03.739Z,35.42
2023-04-17T12:39:03.818Z,35.40
2023-04-17T12:40:03.857Z,35.44
2023-04-17T12:41:03.944Z,35.37
2023-04-17T12:42:04.024Z,35.37
2023-04-17T12:43:04.046Z,35.35
2023-04-17T12:44:04.116Z,35.34
2023-04-17T12:45:04.226Z,35.33
2023-04-17T12:46:04.302Z,35.32
2023-04-17T12:47:04.266Z,35.31
2023-04-17T12:48:04.396Z,35.27
2023-04-17T12:49:04.427Z,35.26
2023-04-17T12:50:04.478Z,35.23
2023-04-17T12:51:04.542Z,35.25
2023-04-17T12:52:04.568Z,35.23
2023-04-17T12:53:04.904Z,35.21